sensor_id;sensor_type;location;lat;lon;timestamp;P1;durP1;ratioP1;P2;durP2;ratioP2
71792;SDS011;59639;51.170;6.456;2022-07-12T00:02:17;7.38;;;4.10;;
71792;SDS011;59639;51.170;6.456;2022-07-12T00:04:43;6.03;;;3.92;;
71792;SDS011;59639;51.170;6.456;2022-07-12T00:07:08;6.07;;;3.80;;
71792;SDS011;59639;51.170;6.456;2022-07-12T00:09:34;10.43;;;3.90;;
71792;SDS011;59639;51.170;6.456;2022-07-12T00:11:59;7.10;;;4.10;;
71792;SDS011;59639;51.170;6.456;2022-07-12T00:14:25;4.78;;;3.30;;
71792;SDS011;59639;51.170;6.456;2022-07-12T00:16:50;5.97;;;3.75;;
71792;SDS011;59639;51.170;6.456;2022-07-12T00:19:16;5.45;;;3.25;;
71792;SDS011;59639;51.170;6.456;2022-07-12T00:21:42;6.38;;;3.47;;
71792;SDS011;59639;51.170;6.456;2022-07-12T00:24:08;7.85;;;3.60;;
71792;SDS011;59639;51.170;6.456;2022-07-12T00:26:33;7.63;;;3.28;;
71792;SDS011;59639;51.170;6.456;2022-07-12T00:28:58;8.40;;;3.88;;
71792;SDS011;59639;51.170;6.456;2022-07-12T00:31:24;5.20;;;3.80;;
71792;SDS011;59639;51.170;6.456;2022-07-12T00:33:49;6.60;;;3.33;;
71792;SDS011;59639;51.170;6.456;2022-07-12T00:36:15;7.72;;;3.40;;
71792;SDS011;59639;51.170;6.456;2022-07-12T00:38:40;9.52;;;3.05;;
71792;SDS011;59639;51.170;6.456;2022-07-12T00:41:06;5.63;;;3.15;;
71792;SDS011;59639;51.170;6.456;2022-07-12T00:43:31;4.65;;;2.80;;
71792;SDS011;59639;51.170;6.456;2022-07-12T00:45:56;5.07;;;2.88;;
71792;SDS011;59639;51.170;6.456;2022-07-12T00:48:22;5.82;;;2.78;;
71792;SDS011;59639;51.170;6.456;2022-07-12T00:50:48;4.97;;;2.90;;
71792;SDS011;59639;51.170;6.456;2022-07-12T00:53:14;6.28;;;3.35;;
71792;SDS011;59639;51.170;6.456;2022-07-12T00:55:41;5.85;;;3.25;;
71792;SDS011;59639;51.170;6.456;2022-07-12T00:58:07;5.50;;;3.00;;
71792;SDS011;59639;51.170;6.456;2022-07-12T01:00:32;5.85;;;3.53;;
71792;SDS011;59639;51.170;6.456;2022-07-12T01:02:58;5.00;;;3.53;;
71792;SDS011;59639;51.170;6.456;2022-07-12T01:05:29;7.30;;;3.60;;
71792;SDS011;59639;51.170;6.456;2022-07-12T01:07:55;12.45;;;3.05;;
71792;SDS011;59639;51.170;6.456;2022-07-12T01:10:22;6.85;;;4.28;;
71792;SDS011;59639;51.170;6.456;2022-07-12T01:12:48;5.47;;;2.80;;
71792;SDS011;59639;51.170;6.456;2022-07-12T01:15:14;4.25;;;3.13;;
71792;SDS011;59639;51.170;6.456;2022-07-12T01:17:39;6.38;;;3.15;;
71792;SDS011;59639;51.170;6.456;2022-07-12T01:20:05;4.03;;;2.88;;
71792;SDS011;59639;51.170;6.456;2022-07-12T01:22:32;5.50;;;3.10;;
71792;SDS011;59639;51.170;6.456;2022-07-12T01:24:59;7.53;;;3.03;;
71792;SDS011;59639;51.170;6.456;2022-07-12T01:27:26;3.97;;;2.85;;
71792;SDS011;59639;51.170;6.456;2022-07-12T01:29:52;5.55;;;2.63;;
71792;SDS011;59639;51.170;6.456;2022-07-12T01:32:18;7.80;;;3.00;;
71792;SDS011;59639;51.170;6.456;2022-07-12T01:34:53;4.53;;;3.05;;
71792;SDS011;59639;51.170;6.456;2022-07-12T01:37:21;9.20;;;2.90;;
71792;SDS011;59639;51.170;6.456;2022-07-12T01:39:48;4.20;;;2.97;;
71792;SDS011;59639;51.170;6.456;2022-07-12T01:42:15;5.00;;;3.28;;
71792;SDS011;59639;51.170;6.456;2022-07-12T01:44:41;6.57;;;3.58;;
71792;SDS011;59639;51.170;6.456;2022-07-12T01:47:07;4.57;;;3.00;;
71792;SDS011;59639;51.170;6.456;2022-07-12T01:49:32;4.65;;;2.78;;
71792;SDS011;59639;51.170;6.456;2022-07-12T01:51:58;4.50;;;3.28;;
71792;SDS011;59639;51.170;6.456;2022-07-12T01:54:27;5.18;;;3.30;;
71792;SDS011;59639;51.170;6.456;2022-07-12T01:56:53;6.90;;;3.47;;
71792;SDS011;59639;51.170;6.456;2022-07-12T01:59:19;5.00;;;3.30;;
71792;SDS011;59639;51.170;6.456;2022-07-12T02:01:45;5.60;;;3.35;;
71792;SDS011;59639;51.170;6.456;2022-07-12T02:04:11;4.63;;;3.42;;
71792;SDS011;59639;51.170;6.456;2022-07-12T02:06:37;5.78;;;3.05;;
71792;SDS011;59639;51.170;6.456;2022-07-12T02:09:04;5.32;;;3.45;;
71792;SDS011;59639;51.170;6.456;2022-07-12T02:11:30;6.72;;;3.63;;
71792;SDS011;59639;51.170;6.456;2022-07-12T02:13:56;4.25;;;2.75;;
71792;SDS011;59639;51.170;6.456;2022-07-12T02:16:21;4.80;;;2.90;;
71792;SDS011;59639;51.170;6.456;2022-07-12T02:18:46;5.68;;;2.72;;
71792;SDS011;59639;51.170;6.456;2022-07-12T02:21:12;13.75;;;3.35;;
71792;SDS011;59639;51.170;6.456;2022-07-12T02:23:38;8.15;;;3.20;;
71792;SDS011;59639;51.170;6.456;2022-07-12T02:26:03;5.70;;;3.08;;
71792;SDS011;59639;51.170;6.456;2022-07-12T02:28:29;3.88;;;2.90;;
71792;SDS011;59639;51.170;6.456;2022-07-12T02:30:54;5.30;;;2.80;;
71792;SDS011;59639;51.170;6.456;2022-07-12T02:33:19;4.82;;;2.75;;
71792;SDS011;59639;51.170;6.456;2022-07-12T02:35:45;6.15;;;2.88;;
71792;SDS011;59639;51.170;6.456;2022-07-12T02:38:11;6.57;;;2.83;;
71792;SDS011;59639;51.170;6.456;2022-07-12T02:40:36;5.05;;;2.95;;
71792;SDS011;59639;51.170;6.456;2022-07-12T02:45:45;9.50;;;2.80;;
71792;SDS011;59639;51.170;6.456;2022-07-12T02:48:11;5.38;;;2.95;;
71792;SDS011;59639;51.170;6.456;2022-07-12T02:50:37;4.20;;;2.92;;
71792;SDS011;59639;51.170;6.456;2022-07-12T02:53:04;3.55;;;2.70;;
71792;SDS011;59639;51.170;6.456;2022-07-12T02:55:29;5.47;;;2.92;;
71792;SDS011;59639;51.170;6.456;2022-07-12T02:57:55;12.82;;;3.25;;
71792;SDS011;59639;51.170;6.456;2022-07-12T03:00:20;4.72;;;2.70;;
71792;SDS011;59639;51.170;6.456;2022-07-12T03:02:46;4.43;;;3.03;;
71792;SDS011;59639;51.170;6.456;2022-07-12T03:05:11;5.25;;;2.85;;
71792;SDS011;59639;51.170;6.456;2022-07-12T03:07:37;5.55;;;2.88;;
71792;SDS011;59639;51.170;6.456;2022-07-12T03:10:03;4.18;;;2.70;;
71792;SDS011;59639;51.170;6.456;2022-07-12T03:12:29;4.90;;;2.95;;
71792;SDS011;59639;51.170;6.456;2022-07-12T03:14:54;5.15;;;2.97;;
71792;SDS011;59639;51.170;6.456;2022-07-12T03:17:20;3.58;;;2.92;;
71792;SDS011;59639;51.170;6.456;2022-07-12T03:19:46;3.10;;;2.63;;
71792;SDS011;59639;51.170;6.456;2022-07-12T03:22:11;6.35;;;3.03;;
71792;SDS011;59639;51.170;6.456;2022-07-12T03:24:37;6.05;;;3.15;;
71792;SDS011;59639;51.170;6.456;2022-07-12T03:27:02;5.22;;;3.28;;
71792;SDS011;59639;51.170;6.456;2022-07-12T03:29:28;6.22;;;3.45;;
71792;SDS011;59639;51.170;6.456;2022-07-12T03:31:53;3.90;;;2.47;;
71792;SDS011;59639;51.170;6.456;2022-07-12T03:34:18;5.10;;;3.30;;
71792;SDS011;59639;51.170;6.456;2022-07-12T03:36:44;4.50;;;3.15;;
71792;SDS011;59639;51.170;6.456;2022-07-12T03:39:10;5.60;;;3.63;;
71792;SDS011;59639;51.170;6.456;2022-07-12T03:41:35;13.85;;;3.92;;
71792;SDS011;59639;51.170;6.456;2022-07-12T03:44:00;5.05;;;3.95;;
71792;SDS011;59639;51.170;6.456;2022-07-12T03:46:26;11.20;;;4.07;;
71792;SDS011;59639;51.170;6.456;2022-07-12T03:48:51;11.05;;;4.00;;
71792;SDS011;59639;51.170;6.456;2022-07-12T03:51:16;5.65;;;3.20;;
71792;SDS011;59639;51.170;6.456;2022-07-12T03:53:42;4.78;;;3.65;;
71792;SDS011;59639;51.170;6.456;2022-07-12T03:56:07;7.57;;;3.75;;
71792;SDS011;59639;51.170;6.456;2022-07-12T03:58:32;6.18;;;3.83;;
71792;SDS011;59639;51.170;6.456;2022-07-12T04:00:58;6.15;;;3.72;;
71792;SDS011;59639;51.170;6.456;2022-07-12T04:03:23;7.00;;;3.47;;
71792;SDS011;59639;51.170;6.456;2022-07-12T04:05:48;10.82;;;3.90;;
71792;SDS011;59639;51.170;6.456;2022-07-12T04:08:14;8.43;;;4.20;;
71792;SDS011;59639;51.170;6.456;2022-07-12T04:10:40;10.52;;;4.50;;
71792;SDS011;59639;51.170;6.456;2022-07-12T04:13:05;20.52;;;7.25;;
71792;SDS011;59639;51.170;6.456;2022-07-12T04:15:31;9.32;;;4.93;;
71792;SDS011;59639;51.170;6.456;2022-07-12T04:17:56;7.00;;;4.60;;
71792;SDS011;59639;51.170;6.456;2022-07-12T04:20:21;10.00;;;4.80;;
71792;SDS011;59639;51.170;6.456;2022-07-12T04:22:47;10.23;;;4.43;;
71792;SDS011;59639;51.170;6.456;2022-07-12T04:25:12;6.80;;;4.53;;
71792;SDS011;59639;51.170;6.456;2022-07-12T04:27:37;8.38;;;4.72;;
71792;SDS011;59639;51.170;6.456;2022-07-12T04:30:03;6.18;;;4.57;;
71792;SDS011;59639;51.170;6.456;2022-07-12T04:32:29;7.55;;;4.00;;
71792;SDS011;59639;51.170;6.456;2022-07-12T04:34:54;7.18;;;5.13;;
71792;SDS011;59639;51.170;6.456;2022-07-12T04:37:20;6.93;;;4.35;;
71792;SDS011;59639;51.170;6.456;2022-07-12T04:39:46;12.30;;;4.80;;
71792;SDS011;59639;51.170;6.456;2022-07-12T04:42:11;7.70;;;4.95;;
71792;SDS011;59639;51.170;6.456;2022-07-12T04:44:37;6.70;;;4.35;;
71792;SDS011;59639;51.170;6.456;2022-07-12T04:47:02;9.27;;;4.72;;
71792;SDS011;59639;51.170;6.456;2022-07-12T04:49:27;8.75;;;5.20;;
71792;SDS011;59639;51.170;6.456;2022-07-12T04:51:53;10.30;;;4.65;;
71792;SDS011;59639;51.170;6.456;2022-07-12T04:54:18;5.72;;;4.70;;
71792;SDS011;59639;51.170;6.456;2022-07-12T04:56:44;7.28;;;4.85;;
71792;SDS011;59639;51.170;6.456;2022-07-12T04:59:09;8.65;;;4.38;;
71792;SDS011;59639;51.170;6.456;2022-07-12T05:01:34;10.65;;;4.70;;
71792;SDS011;59639;51.170;6.456;2022-07-12T05:04:00;9.25;;;5.07;;
71792;SDS011;59639;51.170;6.456;2022-07-12T05:06:25;13.65;;;5.43;;
71792;SDS011;59639;51.170;6.456;2022-07-12T05:08:51;8.13;;;4.32;;
71792;SDS011;59639;51.170;6.456;2022-07-12T05:11:17;7.03;;;4.97;;
71792;SDS011;59639;51.170;6.456;2022-07-12T05:13:42;6.75;;;4.28;;
71792;SDS011;59639;51.170;6.456;2022-07-12T05:16:08;11.27;;;4.88;;
71792;SDS011;59639;51.170;6.456;2022-07-12T05:18:34;9.98;;;4.95;;
71792;SDS011;59639;51.170;6.456;2022-07-12T05:21:00;11.07;;;6.18;;
71792;SDS011;59639;51.170;6.456;2022-07-12T05:23:26;9.82;;;4.85;;
71792;SDS011;59639;51.170;6.456;2022-07-12T05:25:52;9.52;;;5.10;;
71792;SDS011;59639;51.170;6.456;2022-07-12T05:28:17;17.67;;;5.55;;
71792;SDS011;59639;51.170;6.456;2022-07-12T05:30:43;10.55;;;4.85;;
71792;SDS011;59639;51.170;6.456;2022-07-12T05:33:08;8.82;;;5.38;;
71792;SDS011;59639;51.170;6.456;2022-07-12T05:35:34;12.57;;;5.93;;
71792;SDS011;59639;51.170;6.456;2022-07-12T05:37:59;11.07;;;5.63;;
71792;SDS011;59639;51.170;6.456;2022-07-12T05:40:26;13.45;;;5.97;;
71792;SDS011;59639;51.170;6.456;2022-07-12T05:42:51;15.55;;;5.38;;
71792;SDS011;59639;51.170;6.456;2022-07-12T05:45:16;16.02;;;5.47;;
71792;SDS011;59639;51.170;6.456;2022-07-12T05:47:42;10.27;;;5.85;;
71792;SDS011;59639;51.170;6.456;2022-07-12T05:50:07;9.27;;;5.00;;
71792;SDS011;59639;51.170;6.456;2022-07-12T05:52:33;17.60;;;5.95;;
71792;SDS011;59639;51.170;6.456;2022-07-12T05:55:17;11.57;;;5.32;;
71792;SDS011;59639;51.170;6.456;2022-07-12T05:57:43;10.63;;;5.05;;
71792;SDS011;59639;51.170;6.456;2022-07-12T06:00:08;21.27;;;6.13;;
71792;SDS011;59639;51.170;6.456;2022-07-12T06:02:36;21.05;;;6.20;;
71792;SDS011;59639;51.170;6.456;2022-07-12T06:05:02;25.23;;;6.10;;
71792;SDS011;59639;51.170;6.456;2022-07-12T06:07:27;28.13;;;6.33;;
71792;SDS011;59639;51.170;6.456;2022-07-12T06:09:52;10.45;;;5.20;;
71792;SDS011;59639;51.170;6.456;2022-07-12T06:12:18;25.80;;;5.70;;
71792;SDS011;59639;51.170;6.456;2022-07-12T06:14:43;17.63;;;5.13;;
71792;SDS011;59639;51.170;6.456;2022-07-12T06:17:09;23.38;;;6.07;;
71792;SDS011;59639;51.170;6.456;2022-07-12T06:19:34;19.48;;;5.60;;
71792;SDS011;59639;51.170;6.456;2022-07-12T06:21:59;21.27;;;6.10;;
71792;SDS011;59639;51.170;6.456;2022-07-12T06:24:26;31.58;;;6.80;;
71792;SDS011;59639;51.170;6.456;2022-07-12T06:26:51;46.10;;;10.88;;
71792;SDS011;59639;51.170;6.456;2022-07-12T06:29:17;27.75;;;7.78;;
71792;SDS011;59639;51.170;6.456;2022-07-12T06:31:42;24.60;;;6.57;;
71792;SDS011;59639;51.170;6.456;2022-07-12T06:34:07;44.40;;;8.50;;
71792;SDS011;59639;51.170;6.456;2022-07-12T06:36:33;33.13;;;7.50;;
71792;SDS011;59639;51.170;6.456;2022-07-12T06:38:58;82.80;;;11.80;;
71792;SDS011;59639;51.170;6.456;2022-07-12T06:41:26;31.70;;;7.60;;
71792;SDS011;59639;51.170;6.456;2022-07-12T06:43:54;18.95;;;6.40;;
71792;SDS011;59639;51.170;6.456;2022-07-12T06:46:19;19.42;;;5.90;;
71792;SDS011;59639;51.170;6.456;2022-07-12T06:48:45;15.80;;;5.07;;
71792;SDS011;59639;51.170;6.456;2022-07-12T06:51:10;15.35;;;5.28;;
71792;SDS011;59639;51.170;6.456;2022-07-12T06:53:36;17.17;;;5.90;;
71792;SDS011;59639;51.170;6.456;2022-07-12T06:56:01;16.70;;;5.78;;
71792;SDS011;59639;51.170;6.456;2022-07-12T06:58:26;8.88;;;5.18;;
71792;SDS011;59639;51.170;6.456;2022-07-12T07:00:52;14.48;;;4.85;;
71792;SDS011;59639;51.170;6.456;2022-07-12T07:03:18;17.80;;;6.25;;
71792;SDS011;59639;51.170;6.456;2022-07-12T07:05:44;13.85;;;5.90;;
71792;SDS011;59639;51.170;6.456;2022-07-12T07:08:09;18.27;;;6.38;;
71792;SDS011;59639;51.170;6.456;2022-07-12T07:10:34;19.90;;;5.82;;
71792;SDS011;59639;51.170;6.456;2022-07-12T07:13:00;11.48;;;5.47;;
71792;SDS011;59639;51.170;6.456;2022-07-12T07:15:26;16.33;;;6.55;;
71792;SDS011;59639;51.170;6.456;2022-07-12T07:17:51;16.50;;;6.40;;
71792;SDS011;59639;51.170;6.456;2022-07-12T07:20:17;12.63;;;5.88;;
71792;SDS011;59639;51.170;6.456;2022-07-12T07:22:42;9.35;;;4.60;;
71792;SDS011;59639;51.170;6.456;2022-07-12T07:25:08;11.98;;;4.95;;
71792;SDS011;59639;51.170;6.456;2022-07-12T07:27:34;8.05;;;4.65;;
71792;SDS011;59639;51.170;6.456;2022-07-12T07:29:59;10.13;;;4.78;;
71792;SDS011;59639;51.170;6.456;2022-07-12T07:32:43;15.15;;;4.97;;
71792;SDS011;59639;51.170;6.456;2022-07-12T07:35:10;8.15;;;5.40;;
71792;SDS011;59639;51.170;6.456;2022-07-12T07:37:35;9.45;;;5.45;;
71792;SDS011;59639;51.170;6.456;2022-07-12T07:40:01;13.02;;;5.53;;
71792;SDS011;59639;51.170;6.456;2022-07-12T07:42:27;11.13;;;5.60;;
71792;SDS011;59639;51.170;6.456;2022-07-12T07:44:52;9.50;;;5.63;;
71792;SDS011;59639;51.170;6.456;2022-07-12T07:47:17;7.70;;;5.30;;
71792;SDS011;59639;51.170;6.456;2022-07-12T07:49:43;7.05;;;5.40;;
71792;SDS011;59639;51.170;6.456;2022-07-12T07:52:08;8.23;;;4.68;;
71792;SDS011;59639;51.170;6.456;2022-07-12T07:54:33;8.75;;;5.50;;
71792;SDS011;59639;51.170;6.456;2022-07-12T07:56:59;10.90;;;6.35;;
71792;SDS011;59639;51.170;6.456;2022-07-12T07:59:24;12.43;;;6.18;;
71792;SDS011;59639;51.170;6.456;2022-07-12T08:01:49;13.50;;;6.47;;
71792;SDS011;59639;51.170;6.456;2022-07-12T08:04:17;11.48;;;5.97;;
71792;SDS011;59639;51.170;6.456;2022-07-12T08:06:44;9.70;;;7.03;;
71792;SDS011;59639;51.170;6.456;2022-07-12T08:09:10;22.85;;;7.63;;
71792;SDS011;59639;51.170;6.456;2022-07-12T08:11:36;10.15;;;7.47;;
71792;SDS011;59639;51.170;6.456;2022-07-12T08:14:06;8.07;;;6.60;;
71792;SDS011;59639;51.170;6.456;2022-07-12T08:16:32;10.68;;;5.43;;
71792;SDS011;59639;51.170;6.456;2022-07-12T08:18:59;8.77;;;4.63;;
71792;SDS011;59639;51.170;6.456;2022-07-12T08:21:25;10.30;;;5.82;;
71792;SDS011;59639;51.170;6.456;2022-07-12T08:23:50;11.25;;;4.78;;
71792;SDS011;59639;51.170;6.456;2022-07-12T08:26:16;14.88;;;5.15;;
71792;SDS011;59639;51.170;6.456;2022-07-12T08:28:42;7.93;;;5.10;;
71792;SDS011;59639;51.170;6.456;2022-07-12T08:31:07;8.38;;;4.40;;
71792;SDS011;59639;51.170;6.456;2022-07-12T08:33:33;9.32;;;4.60;;
71792;SDS011;59639;51.170;6.456;2022-07-12T08:35:58;8.20;;;5.13;;
71792;SDS011;59639;51.170;6.456;2022-07-12T08:38:24;6.90;;;5.38;;
71792;SDS011;59639;51.170;6.456;2022-07-12T08:40:49;9.90;;;4.63;;
71792;SDS011;59639;51.170;6.456;2022-07-12T08:43:14;8.05;;;4.32;;
71792;SDS011;59639;51.170;6.456;2022-07-12T08:45:40;6.80;;;4.95;;
71792;SDS011;59639;51.170;6.456;2022-07-12T08:48:06;4.85;;;4.35;;
71792;SDS011;59639;51.170;6.456;2022-07-12T08:50:32;5.00;;;3.95;;
71792;SDS011;59639;51.170;6.456;2022-07-12T08:52:57;9.73;;;4.28;;
71792;SDS011;59639;51.170;6.456;2022-07-12T08:55:27;6.30;;;3.20;;
71792;SDS011;59639;51.170;6.456;2022-07-12T08:57:57;8.20;;;2.78;;
71792;SDS011;59639;51.170;6.456;2022-07-12T09:00:24;9.52;;;2.90;;
71792;SDS011;59639;51.170;6.456;2022-07-12T09:02:57;6.00;;;3.20;;
71792;SDS011;59639;51.170;6.456;2022-07-12T09:05:24;3.22;;;2.42;;
71792;SDS011;59639;51.170;6.456;2022-07-12T09:07:51;4.35;;;3.42;;
71792;SDS011;59639;51.170;6.456;2022-07-12T09:10:26;4.30;;;3.05;;
71792;SDS011;59639;51.170;6.456;2022-07-12T09:12:51;8.75;;;3.10;;
71792;SDS011;59639;51.170;6.456;2022-07-12T09:18:01;6.63;;;3.30;;
71792;SDS011;59639;51.170;6.456;2022-07-12T09:20:30;8.40;;;3.75;;
71792;SDS011;59639;51.170;6.456;2022-07-12T09:22:58;8.50;;;2.78;;
71792;SDS011;59639;51.170;6.456;2022-07-12T09:25:26;6.32;;;3.03;;
71792;SDS011;59639;51.170;6.456;2022-07-12T09:27:56;10.98;;;2.88;;
71792;SDS011;59639;51.170;6.456;2022-07-12T09:30:24;6.75;;;2.55;;
71792;SDS011;59639;51.170;6.456;2022-07-12T09:32:51;6.43;;;2.90;;
71792;SDS011;59639;51.170;6.456;2022-07-12T09:35:38;3.80;;;2.50;;
71792;SDS011;59639;51.170;6.456;2022-07-12T09:38:23;4.15;;;3.30;;
71792;SDS011;59639;51.170;6.456;2022-07-12T09:40:50;3.83;;;3.40;;
71792;SDS011;59639;51.170;6.456;2022-07-12T09:43:16;5.30;;;3.13;;
71792;SDS011;59639;51.170;6.456;2022-07-12T09:45:42;7.38;;;2.22;;
71792;SDS011;59639;51.170;6.456;2022-07-12T09:48:09;2.95;;;2.53;;
71792;SDS011;59639;51.170;6.456;2022-07-12T09:50:36;4.40;;;2.53;;
71792;SDS011;59639;51.170;6.456;2022-07-12T09:53:03;6.45;;;3.72;;
71792;SDS011;59639;51.170;6.456;2022-07-12T09:55:29;7.72;;;2.47;;
71792;SDS011;59639;51.170;6.456;2022-07-12T09:57:57;5.85;;;2.65;;
71792;SDS011;59639;51.170;6.456;2022-07-12T10:00:26;4.18;;;2.28;;
71792;SDS011;59639;51.170;6.456;2022-07-12T10:02:52;3.33;;;2.42;;
71792;SDS011;59639;51.170;6.456;2022-07-12T10:05:20;3.28;;;2.47;;
71792;SDS011;59639;51.170;6.456;2022-07-12T10:07:49;4.32;;;2.72;;
71792;SDS011;59639;51.170;6.456;2022-07-12T10:10:15;3.13;;;2.10;;
71792;SDS011;59639;51.170;6.456;2022-07-12T10:12:42;3.40;;;2.08;;
71792;SDS011;59639;51.170;6.456;2022-07-12T10:15:15;2.28;;;1.98;;
71792;SDS011;59639;51.170;6.456;2022-07-12T10:17:44;6.55;;;3.95;;
71792;SDS011;59639;51.170;6.456;2022-07-12T10:20:23;7.50;;;2.90;;
71792;SDS011;59639;51.170;6.456;2022-07-12T10:22:51;5.40;;;2.50;;
71792;SDS011;59639;51.170;6.456;2022-07-12T10:27:53;11.90;;;2.88;;
71792;SDS011;59639;51.170;6.456;2022-07-12T10:30:19;8.35;;;2.22;;
71792;SDS011;59639;51.170;6.456;2022-07-12T10:32:46;3.33;;;2.08;;
71792;SDS011;59639;51.170;6.456;2022-07-12T10:35:18;2.92;;;1.80;;
71792;SDS011;59639;51.170;6.456;2022-07-12T10:40:36;2.58;;;1.80;;
71792;SDS011;59639;51.170;6.456;2022-07-12T10:47:59;2.53;;;1.70;;
71792;SDS011;59639;51.170;6.456;2022-07-12T10:58:39;7.93;;;2.63;;
71792;SDS011;59639;51.170;6.456;2022-07-12T11:01:12;8.50;;;1.98;;
71792;SDS011;59639;51.170;6.456;2022-07-12T11:06:21;3.85;;;1.70;;
71792;SDS011;59639;51.170;6.456;2022-07-12T11:13:54;3.35;;;1.90;;
71792;SDS011;59639;51.170;6.456;2022-07-12T11:16:21;4.47;;;2.40;;
71792;SDS011;59639;51.170;6.456;2022-07-12T11:18:48;4.50;;;2.13;;
71792;SDS011;59639;51.170;6.456;2022-07-12T11:21:14;5.30;;;2.58;;
71792;SDS011;59639;51.170;6.456;2022-07-12T11:23:39;5.00;;;2.42;;
71792;SDS011;59639;51.170;6.456;2022-07-12T11:26:08;3.13;;;2.03;;
71792;SDS011;59639;51.170;6.456;2022-07-12T11:28:35;7.03;;;2.03;;
71792;SDS011;59639;51.170;6.456;2022-07-12T11:31:05;3.75;;;2.17;;
71792;SDS011;59639;51.170;6.456;2022-07-12T11:33:33;5.82;;;2.00;;
71792;SDS011;59639;51.170;6.456;2022-07-12T11:36:05;5.57;;;2.03;;
71792;SDS011;59639;51.170;6.456;2022-07-12T11:38:32;4.07;;;2.20;;
71792;SDS011;59639;51.170;6.456;2022-07-12T11:41:00;4.70;;;2.13;;
71792;SDS011;59639;51.170;6.456;2022-07-12T11:43:28;9.75;;;2.42;;
71792;SDS011;59639;51.170;6.456;2022-07-12T11:45:54;5.47;;;2.92;;
71792;SDS011;59639;51.170;6.456;2022-07-12T11:48:20;3.58;;;2.00;;
71792;SDS011;59639;51.170;6.456;2022-07-12T11:50:47;6.13;;;2.00;;
71792;SDS011;59639;51.170;6.456;2022-07-12T11:53:19;5.15;;;2.15;;
71792;SDS011;59639;51.170;6.456;2022-07-12T11:55:52;6.38;;;1.52;;
71792;SDS011;59639;51.170;6.456;2022-07-12T11:58:22;4.22;;;1.88;;
71792;SDS011;59639;51.170;6.456;2022-07-12T12:00:49;6.50;;;1.63;;
71792;SDS011;59639;51.170;6.456;2022-07-12T12:03:16;4.05;;;2.03;;
71792;SDS011;59639;51.170;6.456;2022-07-12T12:05:43;6.38;;;1.92;;
71792;SDS011;59639;51.170;6.456;2022-07-12T12:08:11;2.38;;;1.40;;
71792;SDS011;59639;51.170;6.456;2022-07-12T12:10:38;3.90;;;1.58;;
71792;SDS011;59639;51.170;6.456;2022-07-12T12:13:11;3.13;;;1.80;;
71792;SDS011;59639;51.170;6.456;2022-07-12T12:15:38;8.10;;;2.72;;
71792;SDS011;59639;51.170;6.456;2022-07-12T12:18:04;6.18;;;2.20;;
71792;SDS011;59639;51.170;6.456;2022-07-12T12:20:34;8.80;;;2.75;;
71792;SDS011;59639;51.170;6.456;2022-07-12T12:23:01;4.20;;;2.22;;
71792;SDS011;59639;51.170;6.456;2022-07-12T12:25:28;11.98;;;2.42;;
71792;SDS011;59639;51.170;6.456;2022-07-12T12:30:22;3.88;;;2.60;;
71792;SDS011;59639;51.170;6.456;2022-07-12T12:32:49;4.65;;;2.80;;
71792;SDS011;59639;51.170;6.456;2022-07-12T12:35:18;6.32;;;2.22;;
71792;SDS011;59639;51.170;6.456;2022-07-12T12:38:03;4.03;;;1.77;;
71792;SDS011;59639;51.170;6.456;2022-07-12T12:40:40;9.25;;;2.10;;
71792;SDS011;59639;51.170;6.456;2022-07-12T12:43:17;5.90;;;2.00;;
71792;SDS011;59639;51.170;6.456;2022-07-12T12:45:51;15.80;;;2.60;;
71792;SDS011;59639;51.170;6.456;2022-07-12T12:50:48;5.03;;;2.05;;
71792;SDS011;59639;51.170;6.456;2022-07-12T12:55:42;5.30;;;2.17;;
71792;SDS011;59639;51.170;6.456;2022-07-12T12:58:09;4.85;;;1.90;;
71792;SDS011;59639;51.170;6.456;2022-07-12T13:00:36;5.07;;;1.98;;
71792;SDS011;59639;51.170;6.456;2022-07-12T13:03:03;6.28;;;2.10;;
71792;SDS011;59639;51.170;6.456;2022-07-12T13:05:30;4.95;;;2.30;;
71792;SDS011;59639;51.170;6.456;2022-07-12T13:07:55;12.90;;;5.45;;
71792;SDS011;59639;51.170;6.456;2022-07-12T13:10:24;6.97;;;2.13;;
71792;SDS011;59639;51.170;6.456;2022-07-12T13:12:50;3.78;;;2.70;;
71792;SDS011;59639;51.170;6.456;2022-07-12T13:15:16;3.33;;;1.80;;
71792;SDS011;59639;51.170;6.456;2022-07-12T13:17:42;9.68;;;2.53;;
71792;SDS011;59639;51.170;6.456;2022-07-12T13:20:08;10.75;;;3.47;;
71792;SDS011;59639;51.170;6.456;2022-07-12T13:22:34;5.55;;;2.03;;
71792;SDS011;59639;51.170;6.456;2022-07-12T13:24:59;6.18;;;2.03;;
71792;SDS011;59639;51.170;6.456;2022-07-12T13:27:26;12.27;;;1.88;;
71792;SDS011;59639;51.170;6.456;2022-07-12T13:29:52;6.88;;;1.92;;
71792;SDS011;59639;51.170;6.456;2022-07-12T13:32:18;6.38;;;1.83;;
71792;SDS011;59639;51.170;6.456;2022-07-12T13:34:46;7.40;;;1.92;;
71792;SDS011;59639;51.170;6.456;2022-07-12T13:37:12;8.02;;;2.08;;
71792;SDS011;59639;51.170;6.456;2022-07-12T13:39:37;9.30;;;2.60;;
71792;SDS011;59639;51.170;6.456;2022-07-12T13:42:21;3.95;;;2.17;;
71792;SDS011;59639;51.170;6.456;2022-07-12T13:44:46;5.80;;;1.67;;
71792;SDS011;59639;51.170;6.456;2022-07-12T13:47:12;6.78;;;2.15;;
71792;SDS011;59639;51.170;6.456;2022-07-12T13:49:37;7.07;;;1.80;;
71792;SDS011;59639;51.170;6.456;2022-07-12T13:52:03;8.60;;;2.55;;
71792;SDS011;59639;51.170;6.456;2022-07-12T13:54:28;6.00;;;2.15;;
71792;SDS011;59639;51.170;6.456;2022-07-12T13:56:53;4.40;;;1.55;;
71792;SDS011;59639;51.170;6.456;2022-07-12T13:59:19;5.78;;;2.08;;
71792;SDS011;59639;51.170;6.456;2022-07-12T14:01:44;4.03;;;1.67;;
71792;SDS011;59639;51.170;6.456;2022-07-12T14:04:10;5.95;;;2.47;;
71792;SDS011;59639;51.170;6.456;2022-07-12T14:06:35;2.53;;;1.67;;
71792;SDS011;59639;51.170;6.456;2022-07-12T14:09:00;6.72;;;1.77;;
71792;SDS011;59639;51.170;6.456;2022-07-12T14:11:26;8.48;;;2.00;;
71792;SDS011;59639;51.170;6.456;2022-07-12T14:13:51;12.13;;;2.28;;
71792;SDS011;59639;51.170;6.456;2022-07-12T14:16:16;6.93;;;1.90;;
71792;SDS011;59639;51.170;6.456;2022-07-12T14:18:43;8.23;;;2.17;;
71792;SDS011;59639;51.170;6.456;2022-07-12T14:21:09;9.70;;;1.90;;
71792;SDS011;59639;51.170;6.456;2022-07-12T14:23:35;4.20;;;1.70;;
71792;SDS011;59639;51.170;6.456;2022-07-12T14:26:01;6.15;;;1.83;;
71792;SDS011;59639;51.170;6.456;2022-07-12T14:28:27;7.28;;;2.13;;
71792;SDS011;59639;51.170;6.456;2022-07-12T14:30:52;4.53;;;1.67;;
71792;SDS011;59639;51.170;6.456;2022-07-12T14:33:18;5.40;;;2.03;;
71792;SDS011;59639;51.170;6.456;2022-07-12T14:35:44;5.30;;;1.60;;
71792;SDS011;59639;51.170;6.456;2022-07-12T14:38:09;4.85;;;2.28;;
71792;SDS011;59639;51.170;6.456;2022-07-12T14:40:35;6.50;;;1.98;;
71792;SDS011;59639;51.170;6.456;2022-07-12T14:43:00;4.10;;;1.75;;
71792;SDS011;59639;51.170;6.456;2022-07-12T14:45:26;6.60;;;2.53;;
71792;SDS011;59639;51.170;6.456;2022-07-12T14:47:51;6.78;;;1.98;;
71792;SDS011;59639;51.170;6.456;2022-07-12T14:50:18;6.22;;;1.65;;
71792;SDS011;59639;51.170;6.456;2022-07-12T14:52:43;4.25;;;1.95;;
71792;SDS011;59639;51.170;6.456;2022-07-12T14:55:09;7.40;;;1.80;;
71792;SDS011;59639;51.170;6.456;2022-07-12T14:57:34;5.75;;;1.92;;
71792;SDS011;59639;51.170;6.456;2022-07-12T14:59:59;3.25;;;2.08;;
71792;SDS011;59639;51.170;6.456;2022-07-12T15:02:25;3.05;;;2.22;;
71792;SDS011;59639;51.170;6.456;2022-07-12T15:04:53;5.40;;;1.70;;
71792;SDS011;59639;51.170;6.456;2022-07-12T15:07:18;3.83;;;1.88;;
71792;SDS011;59639;51.170;6.456;2022-07-12T15:09:44;3.67;;;1.42;;
71792;SDS011;59639;51.170;6.456;2022-07-12T15:12:09;2.45;;;1.80;;
71792;SDS011;59639;51.170;6.456;2022-07-12T15:14:35;4.32;;;1.48;;
71792;SDS011;59639;51.170;6.456;2022-07-12T15:17:00;9.88;;;1.60;;
71792;SDS011;59639;51.170;6.456;2022-07-12T15:19:25;8.10;;;2.47;;
71792;SDS011;59639;51.170;6.456;2022-07-12T15:21:51;8.02;;;1.60;;